This is the latest recevied weather packets stored in our database for station/object WS2Z. If no packets are shown the sender has not sent any weather packets the latest 1 day(s).
| Time | Temp. | Humidity | Pressure | Rain* | Wind** | Luminosity | Snow |
|---|---|---|---|---|---|---|---|
| 1778016913 | 29.44° C | 64% | 1013.9 hPa | 0 mm | 2.24 m/s, 283° | 340 W/m² | - |
| 1778016609 | 28.89° C | 65% | 1013.7 hPa | 0 mm | 0.89 m/s, 276° | 325 W/m² | - |
| 1778016306 | 28.89° C | 63% | 1013.8 hPa | 0 mm | 1.34 m/s, 220° | 378 W/m² | - |
| 1778016003 | 28.89° C | 64% | 1013.9 hPa | 0 mm | 1.34 m/s, 296° | 361 W/m² | - |
| 1778015700 | 29.44° C | 65% | 1013.8 hPa | 0 mm | 2.24 m/s, 283° | 414 W/m² | - |
| 1778015396 | 28.89° C | 66% | 1013.7 hPa | 0 mm | 1.34 m/s, 329° | 431 W/m² | - |
| 1778015093 | 29.44° C | 65% | 1014 hPa | 0 mm | 1.79 m/s, 238° | 447 W/m² | - |
| 1778014790 | 29.44° C | 64% | 1013.9 hPa | 0 mm | 3.13 m/s, 291° | 459 W/m² | - |
| 1778014489 | 30° C | 64% | 1013.8 hPa | 0 mm | 1.34 m/s, 288° | 489 W/m² | - |
| 1778014185 | 30.56° C | 61% | 1013.9 hPa | 0 mm | 0.89 m/s, 181° | 486 W/m² | - |
| 1778013883 | 30° C | 63% | 1013.8 hPa | 0 mm | 1.34 m/s, 287° | 522 W/m² | - |
| 1778013580 | 30° C | 64% | 1013.8 hPa | 0 mm | 0.89 m/s, 220° | 548 W/m² | - |
| 1778013276 | 31.11° C | 61% | 1013.8 hPa | 0 mm | 2.24 m/s, 264° | 568 W/m² | - |
| 1778012973 | 30.56° C | 61% | 1013.7 hPa | 0 mm | 0.45 m/s, 194° | 486 W/m² | - |
| 1778012669 | 30° C | 62% | 1013.7 hPa | 0 mm | 0.45 m/s, 266° | 526 W/m² | - |
| 1778012366 | 30.56° C | 63% | 1013.8 hPa | 0 mm | 0.45 m/s, 282° | 563 W/m² | - |
| 1778012063 | 30.56° C | 62% | 1013.8 hPa | 0 mm | 3.13 m/s, 270° | 605 W/m² | - |
| 1778011761 | 30.56° C | 60% | 1013.6 hPa | 0 mm | 2.68 m/s, 289° | 526 W/m² | - |
| 1778011458 | 30° C | 63% | 1013.7 hPa | 0 mm | 0.45 m/s, 266° | 617 W/m² | - |
| 1778011153 | 30° C | 63% | 1013.8 hPa | 0 mm | 0.89 m/s, 268° | 569 W/m² | - |
| 1778010851 | 30.56° C | 61% | 1013.9 hPa | 0 mm | 2.24 m/s, 278° | 594 W/m² | - |
| 1778010548 | 30.56° C | 61% | 1013.7 hPa | 0 mm | 0.89 m/s, 188° | 552 W/m² | - |
| 1778010246 | 30.56° C | 58% | 1013.9 hPa | 0 mm | 3.13 m/s, 277° | 665 W/m² | - |
| 1778009945 | 30° C | 61% | 1014 hPa | 0 mm | 1.34 m/s, 210° | 653 W/m² | - |
| 1778009644 | 31.11° C | 58% | 1014.1 hPa | 0 mm | 1.79 m/s, 216° | 691 W/m² | - |
* Rain latest hour (hover to see other rain measurements)
** Current wind speed in m/s (hover to see current wind gust speed)